Time;durP1;ratioP1;P1;durP2;ratioP2;P2;SDS_P1;SDS_P2;PMS_P1;PMS_P2;Temp;Humidity;BMP_temperature;BMP_pressure;BME280_temperature;BME280_humidity;BME280_pressure;Samples;Min_cycle;Max_cycle;Signal;HPM_P1;HPM_P2
2022/12/23 00:01:03;;;;;;;23.08;12.25;;;;;;;10.06;100.00;100267.75;5072782;28;20024;-68
2022/12/23 00:03:30;;;;;;;22.67;12.45;;;;;;;10.04;100.00;100262.47;5073064;28;20370;-67
2022/12/23 00:05:55;;;;;;;19.13;12.20;;;;;;;10.03;100.00;100258.94;5072867;28;20044;-72
2022/12/23 00:08:22;;;;;;;20.08;12.30;;;;;;;10.04;100.00;100263.34;5072797;28;20043;-67
2022/12/23 00:10:49;;;;;;;21.92;12.65;;;;;;;10.07;100.00;100278.31;5072709;28;20063;-67
2022/12/23 00:16:06;;;;;;;21.70;12.85;;;;;;;10.07;100.00;100277.44;5073010;28;20044;-67
2022/12/23 00:18:31;;;;;;;25.08;14.23;;;;;;;10.08;100.00;100284.47;5072791;28;20028;-67
2022/12/23 00:20:59;;;;;;;22.27;13.57;;;;;;;10.10;100.00;100288.88;5072812;28;20077;-70
2022/12/23 00:23:24;;;;;;;24.63;13.80;;;;;;;10.10;100.00;100288.88;5072743;28;20043;-67
2022/12/23 00:25:50;;;;;;;24.65;14.65;;;;;;;10.09;100.00;100291.53;5054695;28;20540;-67
2022/12/23 00:28:18;;;;;;;24.60;14.60;;;;;;;10.11;100.00;100297.72;5072672;28;20017;-67
2022/12/23 00:30:45;;;;;;;27.65;15.38;;;;;;;10.10;100.00;100280.94;5072603;28;20490;-67
2022/12/23 00:33:12;;;;;;;25.73;15.00;;;;;;;10.09;100.00;100281.84;5072704;28;20467;-66
2022/12/23 00:35:37;;;;;;;23.65;15.43;;;;;;;10.11;100.00;100288.03;5072541;28;20077;-67
2022/12/23 00:38:03;;;;;;;26.42;15.18;;;;;;;10.13;100.00;100290.66;5075289;28;20507;-67
2022/12/23 00:43:12;;;;;;;28.98;15.85;;;;;;;10.13;100.00;100298.56;5076665;28;20074;-68
2022/12/23 00:45:37;;;;;;;25.73;15.45;;;;;;;10.13;100.00;100296.81;5076438;28;20033;-67
2022/12/23 00:50:51;;;;;;;26.85;15.63;;;;;;;10.12;100.00;100305.63;5076310;28;20083;-67
2022/12/23 00:53:16;;;;;;;27.38;15.75;;;;;;;10.12;100.00;100312.66;5076172;28;20017;-67
2022/12/23 00:55:45;;;;;;;30.52;15.98;;;;;;;10.11;100.00;100317.06;5076496;28;20043;-67
2022/12/23 00:58:10;;;;;;;27.67;15.88;;;;;;;10.10;100.00;100325.84;5076274;28;20082;-67
2022/12/23 01:06:20;;;;;;;29.10;14.93;;;;;;;10.13;100.00;100332.91;5072206;28;20043;-67
2022/12/23 01:08:45;;;;;;;25.60;14.07;;;;;;;10.11;100.00;100330.25;5075920;28;20021;-67
2022/12/23 01:11:11;;;;;;;29.08;14.45;;;;;;;10.13;100.00;100328.50;5075757;28;20098;-66
2022/12/23 01:13:37;;;;;;;28.35;15.35;;;;;;;10.11;100.00;100330.25;5075806;28;20033;-67
2022/12/23 01:16:08;;;;;;;28.63;14.63;;;;;;;10.11;100.00;100329.38;5075663;28;20024;-68
2022/12/23 01:18:34;;;;;;;25.95;13.82;;;;;;;10.13;100.00;100338.19;5075790;28;20024;-67
2022/12/23 01:21:04;;;;;;;30.67;14.82;;;;;;;10.11;100.00;100343.47;5075807;28;20063;-67
2022/12/23 01:23:31;;;;;;;27.45;15.10;;;;;;;10.11;100.00;100345.22;5075772;28;20493;-67
2022/12/23 01:26:00;;;;;;;26.75;15.15;;;;;;;10.08;100.00;100332.88;5075690;28;20032;-67
2022/12/23 01:28:27;;;;;;;28.05;14.43;;;;;;;10.08;100.00;100334.63;5075541;28;20543;-68
2022/12/23 01:30:52;;;;;;;25.15;14.15;;;;;;;10.08;100.00;100332.88;5075619;28;20394;-67
2022/12/23 01:33:18;;;;;;;29.50;14.93;;;;;;;10.07;100.00;100341.69;5075463;28;20025;-67
2022/12/23 01:35:44;;;;;;;28.42;15.23;;;;;;;10.08;100.00;100335.50;5075272;28;20028;-67
2022/12/23 01:38:09;;;;;;;25.35;14.30;;;;;;;10.10;100.00;100333.75;5075530;28;20021;-68
2022/12/23 01:40:36;;;;;;;27.17;14.80;;;;;;;10.08;100.00;100335.50;5075229;28;20024;-69
2022/12/23 01:43:02;;;;;;;30.60;15.32;;;;;;;10.09;100.00;100339.91;5057615;28;20028;-67
2022/12/23 01:45:29;;;;;;;25.50;14.65;;;;;;;10.09;100.00;100346.94;5075194;28;20021;-67
2022/12/23 01:47:59;;;;;;;26.02;15.32;;;;;;;10.09;100.00;100341.69;5075378;28;20601;-67
2022/12/23 01:50:40;;;;;;;23.05;15.13;;;;;;;10.06;100.00;100347.81;5054219;28;20052;-67
2022/12/23 01:53:09;;;;;;;28.27;15.85;;;;;;;10.08;100.00;100359.28;5057108;28;20123;-68
2022/12/23 01:55:47;;;;;;;32.78;16.30;;;;;;;10.06;100.00;100350.44;5057026;28;20031;-67
2022/12/23 01:58:18;;;;;;;28.20;15.55;;;;;;;10.07;100.00;100356.63;5075032;28;20020;-67
2022/12/23 02:03:43;;;;;;;33.47;16.65;;;;;;;10.07;100.00;100364.56;5075275;28;20071;-66
2022/12/23 02:09:34;;;;;;;26.63;15.45;;;;;;;10.09;100.00;100383.91;5069972;28;20078;-67
2022/12/23 02:12:23;;;;;;;31.10;16.35;;;;;;;10.05;100.00;100380.38;5067684;28;20029;-67
2022/12/23 02:18:17;;;;;;;25.33;15.63;;;;;;;10.04;100.00;100378.63;5075032;28;20051;-67
2022/12/23 02:21:33;;;;;;;28.43;16.70;;;;;;;10.03;100.00;100388.28;5074453;28;20044;-68
2022/12/23 02:24:28;;;;;;;29.98;15.70;;;;;;;10.04;100.00;100386.53;4992829;28;20336;-67
2022/12/23 02:27:15;;;;;;;27.25;15.77;;;;;;;10.03;100.00;100384.78;5073977;28;20479;-67
2022/12/23 02:30:05;;;;;;;24.15;15.63;;;;;;;10.04;100.00;100390.03;5056504;28;20028;-67
2022/12/23 02:33:15;;;;;;;25.52;15.90;;;;;;;10.02;100.00;100391.81;5074272;28;20086;-67
2022/12/23 02:36:21;;;;;;;26.13;15.98;;;;;;;10.03;100.00;100400.59;5056402;28;20044;-67
2022/12/23 02:38:53;;;;;;;24.38;15.80;;;;;;;10.03;100.00;100400.59;5052472;28;20078;-67
2022/12/23 02:41:29;;;;;;;21.85;15.25;;;;;;;10.03;100.00;100414.69;5074133;28;20029;-67
2022/12/23 02:44:15;;;;;;;28.50;15.98;;;;;;;10.03;100.00;100414.69;5056253;28;20032;-68
2022/12/23 02:46:46;;;;;;;22.63;15.18;;;;;;;10.03;100.00;100425.25;5074162;28;20029;-68
2022/12/23 02:49:20;;;;;;;24.58;15.02;;;;;;;10.01;100.00;100426.97;5074243;28;20032;-68
2022/12/23 02:51:51;;;;;;;24.38;15.38;;;;;;;10.03;100.00;100440.22;5073751;28;20044;-68
2022/12/23 02:54:23;;;;;;;25.50;15.57;;;;;;;10.02;100.00;100443.69;5074099;28;20032;-68
2022/12/23 02:56:51;;;;;;;21.55;15.25;;;;;;;10.02;100.00;100443.69;5073874;28;20044;-68
2022/12/23 02:59:22;;;;;;;26.30;15.80;;;;;;;10.02;100.00;100447.25;5039361;28;20024;-68
2022/12/23 03:01:48;;;;;;;22.83;15.15;;;;;;;10.01;100.00;100444.56;5073152;28;20473;-68
2022/12/23 03:04:14;;;;;;;21.48;14.32;;;;;;;10.02;100.00;100446.34;5055885;28;20066;-69
2022/12/23 03:06:43;;;;;;;19.50;13.38;;;;;;;10.01;100.00;100439.28;5073317;28;20091;-68
2022/12/23 03:09:18;;;;;;;17.88;13.35;;;;;;;9.99;100.00;100438.41;5073549;28;20086;-68
2022/12/23 03:12:20;;;;;;;18.85;12.90;;;;;;;9.97;100.00;100438.38;5073522;28;20074;-69
2022/12/23 03:15:14;;;;;;;18.95;12.68;;;;;;;10.03;100.00;100450.75;5058034;28;20040;-68
2022/12/23 03:17:48;;;;;;;20.30;12.80;;;;;;;10.02;100.00;100451.63;5073688;28;20024;-68
2022/12/23 03:20:27;;;;;;;20.95;12.80;;;;;;;10.00;100.00;100440.19;5073531;28;20103;-70
2022/12/23 03:23:06;;;;;;;21.15;14.50;;;;;;;10.02;100.00;100438.41;5055633;28;20038;-68
2022/12/23 03:25:40;;;;;;;21.70;13.38;;;;;;;10.01;100.00;100439.28;5073401;28;20029;-68
2022/12/23 03:28:22;;;;;;;19.02;13.07;;;;;;;10.01;100.00;100431.38;5073358;28;20040;-67
2022/12/23 03:30:53;;;;;;;19.52;13.02;;;;;;;10.02;100.00;100441.06;5055514;28;20063;-67
2022/12/23 03:33:23;;;;;;;20.00;13.15;;;;;;;10.03;100.00;100440.22;5073305;28;20084;-67
2022/12/23 03:35:56;;;;;;;19.45;13.05;;;;;;;10.02;100.00;100431.41;5073185;28;20085;-68
2022/12/23 03:38:23;;;;;;;22.08;13.55;;;;;;;10.03;100.00;100432.28;5073261;28;20051;-67
2022/12/23 03:40:57;;;;;;;22.02;14.23;;;;;;;10.04;100.00;100439.31;5073122;28;20028;-67
2022/12/23 03:43:31;;;;;;;21.63;13.80;;;;;;;10.01;100.00;100437.53;5073349;28;20024;-68
2022/12/23 03:46:02;;;;;;;25.27;14.55;;;;;;;10.03;100.00;100443.72;5073176;28;20495;-68
2022/12/23 03:48:44;;;;;;;24.98;14.73;;;;;;;10.02;100.00;100438.41;5073259;28;20436;-67
2022/12/23 03:51:23;;;;;;;22.73;14.10;;;;;;;10.04;100.00;100428.75;5044286;28;20494;-68
2022/12/23 03:53:54;;;;;;;25.98;14.10;;;;;;;10.01;100.00;100437.53;5052699;28;20036;-68
2022/12/23 03:56:29;;;;;;;23.70;14.68;;;;;;;10.01;100.00;100441.94;5052937;28;20100;-68
2022/12/23 03:58:58;;;;;;;23.73;14.52;;;;;;;9.98;100.00;100439.31;5052927;28;20491;-67
2022/12/23 04:01:37;;;;;;;22.17;14.60;;;;;;;10.00;100.00;100446.34;5052935;28;20091;-67
2022/12/23 04:04:05;;;;;;;23.02;14.27;;;;;;;9.99;100.00;100444.56;5052885;28;20074;-67
2022/12/23 04:06:38;;;;;;;19.00;13.52;;;;;;;9.98;100.00;100445.47;5052830;28;20025;-67
2022/12/23 04:09:04;;;;;;;21.85;13.55;;;;;;;9.99;100.00;100454.25;5052808;28;20032;-67
2022/12/23 04:11:32;;;;;;;25.90;14.70;;;;;;;9.99;100.00;100451.63;5052697;28;20062;-67
2022/12/23 04:13:57;;;;;;;23.45;14.73;;;;;;;9.99;100.00;100463.06;5057135;28;20159;-68
2022/12/23 04:16:23;;;;;;;23.73;14.70;;;;;;;9.98;100.00;100460.41;5056837;28;20461;-67
2022/12/23 04:18:48;;;;;;;25.98;14.68;;;;;;;10.00;100.00;100461.28;5057022;28;20040;-68
2022/12/23 04:21:13;;;;;;;25.05;15.55;;;;;;;9.99;100.00;100462.19;5056776;28;20111;-68
2022/12/23 04:23:39;;;;;;;27.63;15.75;;;;;;;10.00;100.00;100463.94;5056878;28;20040;-67
2022/12/23 04:26:04;;;;;;;27.80;16.55;;;;;;;9.98;100.00;100469.22;5056714;28;20020;-67
2022/12/23 04:28:29;;;;;;;27.75;15.15;;;;;;;9.99;100.00;100473.63;5056701;28;20017;-67
2022/12/23 04:30:55;;;;;;;27.48;15.57;;;;;;;10.01;100.00;100478.88;5056584;28;20024;-68
2022/12/23 04:33:20;;;;;;;33.20;15.80;;;;;;;9.99;100.00;100484.16;5056669;28;20100;-67
2022/12/23 04:35:46;;;;;;;26.80;15.38;;;;;;;9.99;100.00;100480.66;5056715;28;20071;-67
2022/12/23 04:38:11;;;;;;;27.63;16.40;;;;;;;9.99;100.00;100486.81;5038600;28;20075;-68
2022/12/23 04:40:36;;;;;;;27.38;15.52;;;;;;;9.99;100.00;100488.56;5056515;28;20378;-68
2022/12/23 04:43:02;;;;;;;25.60;15.55;;;;;;;9.99;100.00;100494.72;5056491;28;20025;-67
2022/12/23 04:45:27;;;;;;;25.33;14.93;;;;;;;9.98;100.00;100489.44;5056522;28;20356;-68
2022/12/23 04:47:54;;;;;;;26.23;15.88;;;;;;;9.94;100.00;100477.09;5038612;28;20079;-69
2022/12/23 04:50:19;;;;;;;25.52;16.33;;;;;;;9.97;100.00;100477.09;5056564;28;20025;-68
2022/12/23 04:52:44;;;;;;;25.42;15.77;;;;;;;9.92;100.00;100458.59;5076205;28;20097;-68
2022/12/23 04:55:10;;;;;;;25.05;15.52;;;;;;;9.94;100.00;100466.53;5075997;28;20020;-68
2022/12/23 04:57:36;;;;;;;23.67;15.85;;;;;;;9.92;100.00;100458.59;5058200;28;20021;-68
2022/12/23 05:00:02;;;;;;;28.20;16.63;;;;;;;9.93;100.00;100456.84;5076114;28;20020;-68
2022/12/23 05:02:28;;;;;;;26.33;15.90;;;;;;;9.93;100.00;100457.72;5076145;28;20077;-67
2022/12/23 05:04:53;;;;;;;28.75;16.40;;;;;;;9.93;100.00;100460.34;5076113;28;20020;-68
2022/12/23 05:07:19;;;;;;;26.58;16.10;;;;;;;9.94;100.00;100458.63;5076151;28;20069;-68
2022/12/23 05:09:44;;;;;;;31.67;17.83;;;;;;;9.92;100.00;100455.97;5075684;28;20028;-68
2022/12/23 05:12:09;;;;;;;28.58;16.90;;;;;;;9.92;100.00;100455.97;5075867;28;20082;-68
2022/12/23 05:14:35;;;;;;;34.63;17.77;;;;;;;9.92;100.00;100460.34;5075901;28;20028;-68
2022/12/23 05:17:00;;;;;;;28.00;16.83;;;;;;;9.93;100.00;100465.63;5075881;28;20032;-69
2022/12/23 05:19:25;;;;;;;29.13;17.10;;;;;;;9.94;100.00;100470.06;5075758;28;20104;-68
2022/12/23 05:21:51;;;;;;;26.27;15.77;;;;;;;9.93;100.00;100470.03;5058025;28;20359;-67
2022/12/23 05:24:16;;;;;;;27.55;16.10;;;;;;;9.94;100.00;100487.66;5074435;28;20121;-68
2022/12/23 05:26:41;;;;;;;25.20;15.48;;;;;;;9.93;100.00;100492.03;5075699;28;20368;-68
2022/12/23 05:29:07;;;;;;;27.95;15.35;;;;;;;9.92;100.00;100497.31;5075639;28;20116;-67
2022/12/23 05:31:32;;;;;;;26.60;14.43;;;;;;;9.92;100.00;100510.50;5075645;28;20052;-68
2022/12/23 05:33:58;;;;;;;30.23;14.60;;;;;;;9.86;100.00;100503.44;5075844;28;20393;-68
2022/12/23 05:36:23;;;;;;;21.67;14.38;;;;;;;9.90;100.00;100512.25;5075516;28;20032;-68
2022/12/23 05:38:48;;;;;;;21.52;14.93;;;;;;;9.89;100.00;100506.09;5075333;28;20422;-67
2022/12/23 05:41:15;;;;;;;22.45;14.00;;;;;;;9.89;100.00;100510.47;5075253;28;20082;-68
2022/12/23 05:43:41;;;;;;;26.65;14.30;;;;;;;9.87;100.00;100515.75;5075650;28;20020;-68
2022/12/23 05:46:06;;;;;;;21.38;13.55;;;;;;;9.89;100.00;100528.94;5075301;28;20444;-68
2022/12/23 05:48:31;;;;;;;25.15;14.57;;;;;;;9.89;100.00;100515.75;5057289;28;20107;-68
2022/12/23 05:50:57;;;;;;;25.90;15.15;;;;;;;9.89;100.00;100526.28;5075104;28;20443;-68
2022/12/23 05:53:23;;;;;;;21.75;13.70;;;;;;;9.89;100.00;100519.28;5075018;28;20036;-68
2022/12/23 05:55:48;;;;;;;22.77;14.27;;;;;;;9.89;100.00;100514.00;5075098;28;20044;-68
2022/12/23 05:58:14;;;;;;;27.95;14.73;;;;;;;9.91;100.00;100509.63;5046595;28;20093;-67
2022/12/23 06:00:40;;;;;;;29.83;14.57;;;;;;;9.91;100.00;100500.81;5095281;28;20065;-67
2022/12/23 06:03:06;;;;;;;25.52;13.90;;;;;;;9.92;100.00;100499.94;5095510;28;20028;-67
2022/12/23 06:05:31;;;;;;;26.73;15.70;;;;;;;9.93;100.00;100493.78;5095201;28;20484;-68
2022/12/23 06:07:56;;;;;;;24.13;15.75;;;;;;;9.93;100.00;100497.31;5095054;28;20027;-68
2022/12/23 06:10:22;;;;;;;28.02;16.20;;;;;;;9.94;100.00;100490.28;5094962;28;20031;-67
2022/12/23 06:12:47;;;;;;;25.00;15.32;;;;;;;9.90;100.00;100476.19;5095048;28;20020;-68
2022/12/23 06:15:14;;;;;;;25.95;15.25;;;;;;;9.93;100.00;100473.56;5076766;28;20024;-68
2022/12/23 06:17:39;;;;;;;24.48;14.95;;;;;;;9.94;100.00;100483.25;5060282;28;20032;-68
2022/12/23 06:20:05;;;;;;;28.08;15.68;;;;;;;9.94;100.00;100477.97;5094765;28;20031;-68
2022/12/23 06:22:31;;;;;;;26.50;14.93;;;;;;;9.95;100.00;100463.03;5094749;28;20107;-68
2022/12/23 06:24:56;;;;;;;27.90;16.13;;;;;;;9.94;100.00;100464.78;5094718;28;20511;-68
2022/12/23 06:27:22;;;;;;;31.65;16.48;;;;;;;9.95;100.00;100469.19;5094742;28;20032;-68
2022/12/23 06:29:47;;;;;;;28.88;16.85;;;;;;;9.93;100.00;100468.28;5094720;28;20099;-68
2022/12/23 06:32:13;;;;;;;27.77;16.02;;;;;;;9.93;100.00;100470.91;5094601;28;20024;-68
2022/12/23 06:34:38;;;;;;;28.25;17.02;;;;;;;9.92;100.00;100470.91;5094122;28;20493;-67
2022/12/23 06:37:03;;;;;;;29.08;17.65;;;;;;;9.90;100.00;100483.22;5076236;28;20032;-68
2022/12/23 06:39:29;;;;;;;27.65;17.02;;;;;;;9.91;100.00;100487.63;5094351;28;20020;-68
2022/12/23 06:41:54;;;;;;;31.55;17.77;;;;;;;9.87;100.00;100484.06;5094226;28;20111;-68
2022/12/23 06:44:20;;;;;;;29.23;17.30;;;;;;;9.92;100.00;100478.81;5094461;28;20020;-68
2022/12/23 06:46:45;;;;;;;29.83;17.15;;;;;;;9.91;100.00;100487.63;5094366;28;20039;-68
2022/12/23 06:49:10;;;;;;;32.08;18.35;;;;;;;9.90;100.00;100497.31;5094302;28;20154;-68
2022/12/23 06:51:36;;;;;;;32.53;17.70;;;;;;;9.90;100.00;100507.84;5094111;28;20051;-67
2022/12/23 06:54:02;;;;;;;33.00;17.75;;;;;;;9.91;100.00;100506.09;5094162;28;20032;-68
2022/12/23 06:56:27;;;;;;;36.85;18.77;;;;;;;9.92;100.00;100508.75;5094131;28;20385;-68
2022/12/23 06:58:53;;;;;;;29.83;18.33;;;;;;;9.93;100.00;100514.91;5094322;28;20103;-68
2022/12/23 07:01:19;;;;;;;30.17;18.35;;;;;;;9.94;100.00;100527.25;5094078;28;20028;-69
2022/12/23 07:03:44;;;;;;;36.42;20.30;;;;;;;9.95;100.00;100540.44;5094098;28;20034;-68
2022/12/23 07:06:09;;;;;;;36.83;20.90;;;;;;;9.94;100.00;100546.59;5094044;28;20056;-68
2022/12/23 07:08:35;;;;;;;34.35;21.02;;;;;;;9.91;100.00;100556.25;5075701;28;20024;-68
2022/12/23 07:11:05;;;;;;;38.65;20.65;;;;;;;9.92;100.00;100560.66;5093738;28;20548;-68
2022/12/23 07:13:31;;;;;;;35.15;21.00;;;;;;;9.91;100.00;100564.16;5093889;28;20056;-67
2022/12/23 07:15:57;;;;;;;32.83;20.30;;;;;;;9.89;100.00;100561.53;5093819;28;20374;-68
2022/12/23 07:18:24;;;;;;;35.90;22.15;;;;;;;9.89;100.00;100544.78;5093764;28;20036;-68
2022/12/23 07:20:51;;;;;;;35.97;21.73;;;;;;;9.88;100.00;100540.38;5075428;28;20021;-68
2022/12/23 07:23:16;;;;;;;41.00;22.83;;;;;;;9.88;100.00;100524.53;5093691;28;20081;-68
2022/12/23 07:25:42;;;;;;;37.47;22.00;;;;;;;9.85;100.00;100529.78;5093720;28;20024;-68
2022/12/23 07:28:07;;;;;;;39.25;23.05;;;;;;;9.83;100.00;100535.06;5093762;28;20034;-71
2022/12/23 07:30:33;;;;;;;37.10;22.10;;;;;;;9.82;100.00;100528.03;5093832;28;20430;-68
2022/12/23 07:32:58;;;;;;;43.15;23.38;;;;;;;9.82;100.00;100533.28;5093542;28;20060;-68
2022/12/23 07:35:24;;;;;;;44.95;24.48;;;;;;;9.83;100.00;100536.81;5093458;28;20031;-68
2022/12/23 07:37:54;;;;;;;43.38;24.58;;;;;;;9.81;100.00;100531.53;5093279;28;20024;-67
2022/12/23 07:40:23;;;;;;;40.17;23.88;;;;;;;9.79;100.00;100520.94;5093381;28;20473;-68
2022/12/23 07:42:52;;;;;;;45.47;25.27;;;;;;;9.78;100.00;100528.88;5093370;28;20024;-68
2022/12/23 07:45:18;;;;;;;41.65;24.40;;;;;;;9.77;100.00;100527.97;5093390;28;20020;-68
2022/12/23 07:47:43;;;;;;;42.65;23.65;;;;;;;9.75;100.00;100526.19;5092737;28;20513;-67
2022/12/23 07:50:09;;;;;;;42.65;24.02;;;;;;;9.78;100.00;100528.88;5093132;28;20035;-68
2022/12/23 07:52:34;;;;;;;44.50;23.40;;;;;;;9.77;100.00;100529.75;5092946;28;20036;-68
2022/12/23 07:55:00;;;;;;;47.65;24.25;;;;;;;9.78;100.00;100527.09;5058461;28;20020;-69
2022/12/23 07:57:25;;;;;;;46.30;25.15;;;;;;;9.78;100.00;100531.50;5093122;28;20440;-68
2022/12/23 07:59:50;;;;;;;46.78;25.30;;;;;;;9.77;100.00;100524.47;5093239;28;20035;-68
2022/12/23 08:02:16;;;;;;;44.75;24.58;;;;;;;9.77;100.00;100519.19;5093338;28;20024;-68
2022/12/23 08:04:41;;;;;;;52.42;26.08;;;;;;;9.72;100.00;100523.50;5093016;28;20028;-68
2022/12/23 08:07:06;;;;;;;52.60;25.50;;;;;;;9.74;100.00;100521.78;5093219;28;20473;-68
2022/12/23 08:09:32;;;;;;;48.70;25.30;;;;;;;9.71;100.00;100513.84;5093067;28;20028;-67
2022/12/23 08:11:57;;;;;;;50.10;24.65;;;;;;;9.70;100.00;100509.44;5092893;28;20367;-68
2022/12/23 08:14:23;;;;;;;48.92;25.95;;;;;;;9.69;100.00;100521.75;5092916;28;20059;-68
2022/12/23 08:16:48;;;;;;;50.58;23.73;;;;;;;9.68;100.00;100517.34;5093035;28;20069;-67
2022/12/23 08:19:13;;;;;;;45.58;24.13;;;;;;;9.69;100.00;100510.31;5092889;28;20123;-68
2022/12/23 08:21:39;;;;;;;53.50;25.00;;;;;;;9.71;100.00;100503.28;5092979;28;20073;-67
2022/12/23 08:24:04;;;;;;;46.15;23.98;;;;;;;9.71;100.00;100508.56;5093101;28;20059;-67
2022/12/23 08:26:31;;;;;;;44.13;23.23;;;;;;;9.71;100.00;100512.06;5092932;28;20074;-67
2022/12/23 08:28:57;;;;;;;44.08;23.17;;;;;;;9.71;100.00;100508.56;5093053;28;20091;-67
2022/12/23 08:31:30;;;;;;;44.20;21.40;;;;;;;9.74;100.00;100525.31;5092935;28;20103;-69
2022/12/23 08:33:56;;;;;;;45.55;21.90;;;;;;;9.72;100.00;100507.69;5092747;28;20107;-68
2022/12/23 08:36:26;;;;;;;43.50;20.90;;;;;;;9.69;100.00;100505.03;5092833;28;20043;-67
2022/12/23 08:38:54;;;;;;;41.30;20.10;;;;;;;9.69;100.00;100507.69;5092790;28;20063;-68
2022/12/23 08:41:23;;;;;;;45.80;20.67;;;;;;;9.67;100.00;100509.41;5092645;28;20027;-68
2022/12/23 08:43:50;;;;;;;38.25;19.48;;;;;;;9.64;100.00;100504.13;5074634;28;20500;-69
2022/12/23 08:46:15;;;;;;;38.28;17.92;;;;;;;9.62;100.00;100506.72;5093055;28;20126;-70
2022/12/23 08:48:41;;;;;;;39.88;17.70;;;;;;;9.62;100.00;100493.53;5092713;28;20116;-67
2022/12/23 08:51:09;;;;;;;33.65;17.90;;;;;;;9.63;100.00;100494.41;5092770;28;20106;-68
2022/12/23 08:53:37;;;;;;;34.47;17.40;;;;;;;9.62;100.00;100490.03;5092735;28;20063;-68
2022/12/23 08:56:06;;;;;;;37.42;18.35;;;;;;;9.61;100.00;100483.88;5092661;28;20496;-68
2022/12/23 08:58:35;;;;;;;36.97;18.38;;;;;;;9.61;100.00;100486.50;5094375;28;20069;-68
2022/12/23 09:01:06;;;;;;;36.63;19.15;;;;;;;9.62;100.00;100476.81;5096444;28;20028;-68
2022/12/23 09:03:32;;;;;;;37.20;18.85;;;;;;;9.62;100.00;100476.81;5096481;28;20020;-68
2022/12/23 09:05:57;;;;;;;34.65;18.48;;;;;;;9.65;100.00;100484.78;5096306;28;20066;-68
2022/12/23 09:08:23;;;;;;;37.35;18.85;;;;;;;9.65;100.00;100483.03;5096424;28;20028;-68
2022/12/23 09:10:48;;;;;;;43.63;19.55;;;;;;;9.65;100.00;100474.22;5096044;28;20032;-68
2022/12/23 09:13:14;;;;;;;33.60;17.02;;;;;;;9.64;100.00;100468.06;5077236;28;20119;-67
2022/12/23 09:15:43;;;;;;;33.65;16.88;;;;;;;9.58;100.00;100462.72;5093389;28;20036;-68
2022/12/23 09:18:10;;;;;;;35.35;16.48;;;;;;;9.63;100.00;100454.84;5078100;28;20039;-68
2022/12/23 09:20:36;;;;;;;27.38;15.15;;;;;;;9.65;100.00;100458.41;5096195;28;20073;-68
2022/12/23 09:23:03;;;;;;;30.75;15.05;;;;;;;9.67;100.00;100443.44;5095859;28;20031;-67
2022/12/23 09:25:29;;;;;;;35.35;15.20;;;;;;;9.68;100.00;100430.28;5095977;28;20016;-68
2022/12/23 09:27:54;;;;;;;29.40;15.35;;;;;;;9.68;100.00;100429.41;5095820;28;20481;-68
2022/12/23 09:30:19;;;;;;;27.30;14.57;;;;;;;9.67;100.00;100433.78;5095737;28;20065;-68
2022/12/23 09:32:45;;;;;;;30.13;13.82;;;;;;;9.69;100.00;100436.44;5095998;28;20107;-67
2022/12/23 09:35:10;;;;;;;25.15;13.20;;;;;;;9.69;100.00;100439.09;5095619;28;20044;-67
2022/12/23 09:37:36;;;;;;;24.50;13.13;;;;;;;9.67;100.00;100425.84;5095408;28;20032;-68
2022/12/23 09:40:02;;;;;;;32.05;13.27;;;;;;;9.69;100.00;100433.81;5095504;28;20024;-68
2022/12/23 09:42:53;;;;;;;26.58;13.23;;;;;;;9.70;100.00;100422.38;5095437;28;20047;-68
2022/12/23 09:46:04;;;;;;;28.83;13.15;;;;;;;9.72;100.00;100424.16;5095352;28;20046;-68
2022/12/23 09:48:35;;;;;;;26.30;12.85;;;;;;;9.73;100.00;100422.41;5093121;28;20109;-68
2022/12/23 09:51:02;;;;;;;23.95;12.55;;;;;;;9.74;100.00;100418.88;5077630;28;20044;-68
2022/12/23 09:53:51;;;;;;;24.77;11.15;;;;;;;9.73;100.00;100406.56;5095193;28;20502;-68
2022/12/23 09:56:42;;;;;;;21.77;11.02;;;;;;;9.69;100.00;100403.03;5095276;28;20032;-68
2022/12/23 09:59:25;;;;;;;21.95;11.00;;;;;;;9.69;100.00;100402.16;5089417;28;20044;-68
2022/12/23 10:02:13;;;;;;;20.33;10.75;;;;;;;9.67;100.00;100415.31;5095615;28;20470;-68
2022/12/23 10:05:04;;;;;;;17.27;10.02;;;;;;;9.69;100.00;100421.50;5095458;28;20066;-67
2022/12/23 10:07:51;;;;;;;20.95;10.90;;;;;;;9.72;100.00;100420.63;5095108;28;20043;-67
2022/12/23 10:10:31;;;;;;;22.42;10.40;;;;;;;9.74;100.00;100427.69;5094441;28;20036;-68
2022/12/23 10:13:00;;;;;;;19.95;11.18;;;;;;;9.73;100.00;100418.00;5095112;28;20028;-68
2022/12/23 10:15:34;;;;;;;23.73;10.82;;;;;;;9.73;100.00;100406.56;5094762;28;20469;-68
2022/12/23 10:18:14;;;;;;;23.80;10.77;;;;;;;9.73;100.00;100404.81;5081080;28;20473;-68
2022/12/23 10:20:47;;;;;;;20.52;10.65;;;;;;;9.73;100.00;100391.63;5076713;28;20428;-67
2022/12/23 10:23:16;;;;;;;23.45;10.90;;;;;;;9.71;100.00;100377.53;5094746;28;20048;-67
2022/12/23 10:25:50;;;;;;;24.90;10.93;;;;;;;9.68;100.00;100385.44;5094628;28;20024;-67
2022/12/23 10:28:16;;;;;;;18.63;11.27;;;;;;;9.67;100.00;100377.50;5094748;28;20024;-67
2022/12/23 10:30:52;;;;;;;26.25;10.45;;;;;;;9.68;100.00;100364.34;5094512;28;20095;-67
2022/12/23 10:33:23;;;;;;;19.60;10.48;;;;;;;9.67;100.00;100354.63;5094769;28;20024;-67
2022/12/23 10:36:03;;;;;;;22.20;10.00;;;;;;;9.66;100.00;100358.16;5094482;28;20036;-67
2022/12/23 10:38:47;;;;;;;21.55;10.00;;;;;;;9.70;100.00;100354.66;5094563;28;20097;-68
2022/12/23 10:41:32;;;;;;;18.42;10.15;;;;;;;9.71;100.00;100343.22;5075208;28;20024;-67
2022/12/23 10:44:42;;;;;;;18.08;9.23;;;;;;;9.71;100.00;100348.50;5074235;28;20081;-67
2022/12/23 10:47:14;;;;;;;23.08;9.65;;;;;;;9.72;100.00;100339.75;5053178;28;20032;-67
2022/12/23 10:50:13;;;;;;;18.35;8.80;;;;;;;9.74;100.00;100337.97;5073859;28;20036;-67
2022/12/23 10:52:41;;;;;;;19.33;8.70;;;;;;;9.77;100.00;100329.22;5073808;28;20048;-68
2022/12/23 10:55:28;;;;;;;19.13;8.95;;;;;;;9.80;100.00;100326.56;5086117;28;20099;-68
2022/12/23 10:57:58;;;;;;;18.50;9.30;;;;;;;9.79;100.00;100317.78;5094131;28;20138;-66
2022/12/23 11:00:24;;;;;;;19.95;10.02;;;;;;;9.81;100.00;100315.16;5093897;28;20066;-67
2022/12/23 11:03:11;;;;;;;19.27;8.32;;;;;;;9.79;100.00;100307.22;5093873;28;20051;-67
2022/12/23 11:05:37;;;;;;;18.38;8.25;;;;;;;9.78;100.00;100294.91;5093882;28;20035;-67
2022/12/23 11:08:02;;;;;;;18.10;7.82;;;;;;;9.77;100.00;100293.16;5093801;28;20021;-66
2022/12/23 11:10:33;;;;;;;21.20;8.13;;;;;;;9.79;100.00;100280.81;5058820;28;20074;-67
2022/12/23 11:12:59;;;;;;;22.77;8.02;;;;;;;9.81;100.00;100277.31;5093955;28;20020;-66
2022/12/23 11:15:32;;;;;;;14.95;6.97;;;;;;;9.81;100.00;100272.94;5093531;28;20500;-66
2022/12/23 11:18:05;;;;;;;;;;;;;;;9.83;100.00;100276.44;5094340;28;20031;-67
2022/12/23 11:20:33;;;;;;;17.17;7.75;;;;;;;9.77;100.00;100271.16;5075361;28;19908;-67
2022/12/23 11:23:01;;;;;;;14.13;7.18;;;;;;;9.74;100.00;100272.00;5092589;28;20032;-66
2022/12/23 11:25:45;;;;;;;13.38;7.05;;;;;;;9.74;100.00;100274.66;5093839;28;20032;-68
2022/12/23 11:28:10;;;;;;;16.60;7.13;;;;;;;9.75;100.00;100264.97;5093386;28;20047;-68
2022/12/23 11:31:21;;;;;;;14.38;7.25;;;;;;;9.73;100.00;100262.34;5093393;28;20024;-67
2022/12/23 11:33:54;;;;;;;13.85;6.53;;;;;;;9.70;100.00;100262.31;5088327;28;20112;-67
2022/12/23 11:36:26;;;;;;;15.88;7.15;;;;;;;9.67;100.00;100256.16;5093180;28;20047;-69
2022/12/23 11:39:02;;;;;;;15.43;7.13;;;;;;;9.63;100.00;100239.41;5093201;28;20020;-66
2022/12/23 11:41:35;;;;;;;23.92;7.45;;;;;;;9.64;100.00;100241.19;5074993;28;20032;-68
2022/12/23 11:44:05;;;;;;;15.93;7.05;;;;;;;9.63;100.00;100227.97;5093150;28;20502;-69